Time;durP1;ratioP1;P1;durP2;ratioP2;P2;SDS_P1;SDS_P2;PMS_P1;PMS_P2;Temp;Humidity;BMP_temperature;BMP_pressure;BME280_temperature;BME280_humidity;BME280_pressure;Samples;Min_cycle;Max_cycle;Signal;HPM_P1;HPM_P2
2024/04/03 00:01:00;;;;;;;0.20;0.20;;;;;;;9.20;100.00;98638.81;5051318;28;20052;-58
2024/04/03 00:03:26;;;;;;;0.20;0.20;;;;;;;9.18;100.00;98636.38;5053525;28;20052;-58
2024/04/03 00:05:53;;;;;;;0.22;0.22;;;;;;;9.20;100.00;98634.28;5052309;28;20052;-58
2024/04/03 00:08:21;;;;;;;0.30;0.30;;;;;;;9.19;100.00;98638.03;5059454;28;20033;-58
2024/04/03 00:10:48;;;;;;;0.20;0.20;;;;;;;9.17;100.00;98634.78;5051914;28;20082;-58
2024/04/03 00:13:14;;;;;;;0.20;0.20;;;;;;;9.07;100.00;98626.63;5053387;28;20068;-58
2024/04/03 00:15:41;;;;;;;0.30;0.30;;;;;;;9.06;100.00;98628.50;5043281;28;20049;-58
2024/04/03 00:18:07;;;;;;;0.25;0.25;;;;;;;9.13;100.00;98624.81;5053844;28;20091;-58
2024/04/03 00:20:34;;;;;;;0.20;0.20;;;;;;;9.05;100.00;98618.84;5051172;28;20052;-57
2024/04/03 00:23:00;;;;;;;0.35;0.35;;;;;;;9.11;100.00;98624.25;5050422;28;20505;-57
2024/04/03 00:25:29;;;;;;;0.30;0.30;;;;;;;8.96;100.00;98622.19;5058048;28;20054;-58
2024/04/03 00:27:55;;;;;;;0.20;0.20;;;;;;;9.03;100.00;98620.16;5052366;28;20505;-57
2024/04/03 00:30:22;;;;;;;0.20;0.20;;;;;;;9.01;100.00;98614.22;5055842;28;20130;-57
2024/04/03 00:32:48;;;;;;;0.30;0.30;;;;;;;9.05;100.00;98610.81;5044950;28;20123;-57
2024/04/03 00:35:15;;;;;;;0.20;0.20;;;;;;;8.95;100.00;98612.56;5048155;28;20045;-57
2024/04/03 00:37:42;;;;;;;0.20;0.20;;;;;;;8.89;100.00;98613.56;5053552;28;20118;-57
2024/04/03 00:40:10;;;;;;;0.20;0.20;;;;;;;9.04;100.00;98614.56;5056180;28;20032;-57
2024/04/03 00:42:37;;;;;;;0.20;0.20;;;;;;;9.00;100.00;98612.63;5052103;28;20052;-58
2024/04/03 00:45:05;;;;;;;0.20;0.20;;;;;;;9.10;100.00;98610.09;5055735;28;20036;-57
2024/04/03 00:47:31;;;;;;;0.20;0.20;;;;;;;8.91;100.00;98604.25;5050669;28;20185;-57
2024/04/03 00:49:58;;;;;;;0.30;0.30;;;;;;;9.00;100.00;98599.25;5054686;28;20048;-58
2024/04/03 00:52:24;;;;;;;0.22;0.22;;;;;;;8.99;100.00;98600.34;5050068;28;20918;-57
2024/04/03 00:54:51;;;;;;;0.20;0.20;;;;;;;8.93;100.00;98593.28;5046699;28;20040;-58
2024/04/03 00:57:17;;;;;;;0.20;0.20;;;;;;;8.83;100.00;98592.09;5060358;28;20210;-57
2024/04/03 00:59:46;;;;;;;0.20;0.20;;;;;;;8.98;100.00;98585.34;5059302;28;20041;-58
2024/04/03 01:02:13;;;;;;;0.20;0.20;;;;;;;8.89;100.00;98584.16;5058064;28;20098;-58
2024/04/03 01:04:41;;;;;;;0.20;0.20;;;;;;;8.74;100.00;98587.44;5044259;28;20492;-58
2024/04/03 01:07:07;;;;;;;0.10;0.10;;;;;;;8.70;100.00;98576.41;5054326;28;20043;-57
2024/04/03 01:09:34;;;;;;;0.20;0.20;;;;;;;8.64;100.00;98569.41;5059328;28;20158;-58
2024/04/03 01:12:00;;;;;;;0.20;0.20;;;;;;;8.66;100.00;98567.25;5050461;28;20041;-57
2024/04/03 01:14:27;;;;;;;0.30;0.30;;;;;;;8.66;100.00;98563.78;5050034;28;20757;-57
2024/04/03 01:16:55;;;;;;;0.20;0.20;;;;;;;8.58;100.00;98562.34;5049540;28;20069;-58
2024/04/03 01:19:22;;;;;;;0.30;0.30;;;;;;;8.46;100.00;98561.63;5055493;28;20678;-58
2024/04/03 01:21:48;;;;;;;0.20;0.20;;;;;;;8.50;100.00;98554.75;5050281;28;20542;-58
2024/04/03 01:24:20;;;;;;;0.30;0.30;;;;;;;8.45;100.00;98552.00;5053039;28;20068;-58
2024/04/03 01:26:46;;;;;;;0.25;0.25;;;;;;;8.41;100.00;98557.03;5049021;28;20040;-58
2024/04/03 01:29:13;;;;;;;0.30;0.30;;;;;;;8.55;100.00;98550.28;5058484;28;20538;-58
2024/04/03 01:31:39;;;;;;;0.30;0.30;;;;;;;8.56;100.00;98549.25;5049702;28;20110;-58
2024/04/03 01:34:06;;;;;;;0.30;0.30;;;;;;;8.52;100.00;98539.31;5056466;28;20129;-58
2024/04/03 01:36:32;;;;;;;0.30;0.30;;;;;;;8.49;100.00;98542.47;5047934;28;20773;-58
2024/04/03 01:38:59;;;;;;;0.30;0.30;;;;;;;8.53;100.00;98540.91;5055690;28;20686;-57
2024/04/03 01:41:27;;;;;;;0.30;0.30;;;;;;;8.58;100.00;98536.44;5048916;28;20516;-58
2024/04/03 01:43:54;;;;;;;0.30;0.30;;;;;;;8.61;100.00;98540.47;5049808;28;20053;-57
2024/04/03 01:46:20;;;;;;;0.30;0.30;;;;;;;8.70;100.00;98544.34;5049736;28;20495;-58
2024/04/03 01:48:47;;;;;;;0.28;0.28;;;;;;;8.69;100.00;98529.38;5047775;28;20910;-58
2024/04/03 01:51:13;;;;;;;0.45;0.45;;;;;;;8.58;100.00;98522.28;5051840;28;20060;-58
2024/04/03 01:53:41;;;;;;;0.30;0.30;;;;;;;8.52;100.00;98532.09;5050354;28;20041;-58
2024/04/03 01:56:07;;;;;;;0.40;0.40;;;;;;;8.64;100.00;98521.31;5053765;28;20099;-58
2024/04/03 01:58:35;;;;;;;0.30;0.30;;;;;;;8.64;100.00;98515.97;5051723;28;20585;-58
2024/04/03 02:01:01;;;;;;;0.30;0.30;;;;;;;8.65;100.00;98509.56;5053424;28;20037;-58
2024/04/03 02:03:28;;;;;;;0.20;0.20;;;;;;;8.70;100.00;98509.63;5051071;28;20056;-58
2024/04/03 02:05:54;;;;;;;0.28;0.28;;;;;;;8.76;100.00;98505.16;5049868;28;20041;-58
2024/04/03 02:08:21;;;;;;;0.20;0.20;;;;;;;8.78;100.00;98505.72;5052954;28;20044;-57
2024/04/03 02:10:47;;;;;;;0.20;0.20;;;;;;;8.79;100.00;98497.47;5045240;28;20036;-58
2024/04/03 02:13:14;;;;;;;0.30;0.30;;;;;;;8.73;100.00;98500.31;5046906;28;20068;-58
2024/04/03 02:15:50;;;;;;;0.28;0.28;;;;;;;8.84;100.00;98497.53;5050961;28;20401;-58
2024/04/03 02:18:17;;;;;;;0.20;0.20;;;;;;;8.77;100.00;98496.09;5050459;28;20076;-57
2024/04/03 02:20:43;;;;;;;0.30;0.30;;;;;;;8.77;100.00;98496.09;5050112;28;20508;-59
2024/04/03 02:23:10;;;;;;;0.30;0.30;;;;;;;8.74;100.00;98508.09;5047457;28;20036;-58
2024/04/03 02:25:37;;;;;;;0.30;0.30;;;;;;;8.84;100.00;98502.06;5053508;28;20049;-58
2024/04/03 02:28:04;;;;;;;0.20;0.20;;;;;;;8.68;100.00;98498.38;5054478;28;20522;-58
2024/04/03 02:30:30;;;;;;;0.30;0.30;;;;;;;8.76;100.00;98491.78;5050441;28;20442;-58
2024/04/03 02:32:59;;;;;;;0.40;0.40;;;;;;;8.95;100.00;98494.97;5048535;28;20068;-59
2024/04/03 02:35:26;;;;;;;0.30;0.30;;;;;;;8.98;100.00;98497.13;5041224;28;20380;-58
2024/04/03 02:37:53;;;;;;;0.30;0.30;;;;;;;9.02;100.00;98498.25;5043948;28;20167;-58
2024/04/03 02:40:19;;;;;;;0.28;0.28;;;;;;;9.01;100.00;98485.94;5051962;28;20102;-57
2024/04/03 02:42:46;;;;;;;0.30;0.30;;;;;;;9.09;100.00;98493.53;5046748;28;20041;-58
2024/04/03 02:45:12;;;;;;;0.30;0.30;;;;;;;9.11;100.00;98495.94;5054883;28;20051;-58
2024/04/03 02:47:39;;;;;;;0.30;0.30;;;;;;;9.24;100.00;98490.22;5050334;28;20044;-58
2024/04/03 02:50:07;;;;;;;0.20;0.20;;;;;;;9.00;100.00;98477.13;5051388;28;20190;-58
2024/04/03 02:52:34;;;;;;;0.20;0.20;;;;;;;9.02;100.00;98472.31;5051224;28;20084;-57
2024/04/03 02:55:04;;;;;;;0.30;0.30;;;;;;;9.10;100.00;98472.94;5059241;28;20178;-58
2024/04/03 02:57:31;;;;;;;0.30;0.30;;;;;;;9.11;100.00;98474.53;5052836;28;20045;-57
2024/04/03 02:59:57;;;;;;;0.20;0.20;;;;;;;9.12;100.00;98460.13;5045944;28;20053;-58
2024/04/03 03:02:24;;;;;;;0.20;0.20;;;;;;;9.20;100.00;98457.81;5048859;28;20076;-58
2024/04/03 03:04:51;;;;;;;0.30;0.30;;;;;;;9.22;100.00;98450.34;5054650;28;20049;-58
2024/04/03 03:07:19;;;;;;;0.30;0.30;;;;;;;9.22;100.00;98450.34;5060430;28;20108;-58
2024/04/03 03:09:45;;;;;;;0.30;0.30;;;;;;;9.17;100.00;98434.25;5051814;28;20854;-58
2024/04/03 03:12:12;;;;;;;0.22;0.22;;;;;;;9.07;100.00;98426.13;5049335;28;20044;-58
2024/04/03 03:14:38;;;;;;;0.20;0.20;;;;;;;9.04;100.00;98423.97;5053590;28;20064;-58
2024/04/03 03:17:05;;;;;;;0.30;0.30;;;;;;;8.99;100.00;98429.28;5057588;28;20040;-58
2024/04/03 03:19:31;;;;;;;0.30;0.30;;;;;;;8.96;100.00;98425.25;5050903;28;20051;-58
2024/04/03 03:21:58;;;;;;;0.25;0.25;;;;;;;8.76;100.00;98428.50;5052666;28;20118;-58
2024/04/03 03:24:26;;;;;;;0.30;0.30;;;;;;;8.79;100.00;98424.50;5057690;28;20127;-58
2024/04/03 03:26:53;;;;;;;0.20;0.20;;;;;;;8.91;100.00;98411.81;5050879;28;20213;-58
2024/04/03 03:29:19;;;;;;;0.30;0.30;;;;;;;8.87;100.00;98417.91;5051676;28;20095;-58
2024/04/03 03:31:46;;;;;;;0.30;0.30;;;;;;;8.84;100.00;98406.66;5054040;28;20468;-59
2024/04/03 03:34:12;;;;;;;0.13;0.13;;;;;;;8.66;100.00;98415.00;5052161;28;20124;-58
2024/04/03 03:36:39;;;;;;;0.30;0.30;;;;;;;8.54;100.00;98411.66;5046987;28;20155;-58
2024/04/03 03:39:06;;;;;;;0.30;0.30;;;;;;;8.29;100.00;98398.78;5054148;28;20128;-58
2024/04/03 03:41:33;;;;;;;0.30;0.30;;;;;;;8.31;100.00;98397.47;5054878;28;20075;-58
2024/04/03 03:44:00;;;;;;;0.20;0.20;;;;;;;8.16;100.00;98399.91;5057892;28;20044;-57
2024/04/03 03:46:26;;;;;;;0.25;0.25;;;;;;;8.07;100.00;98406.75;5050745;28;20041;-58
2024/04/03 03:54:23;;;;;;;0.30;0.30;;;;;;;8.13;100.00;98400.41;5049001;28;20117;-58
2024/04/03 03:56:51;;;;;;;0.30;0.30;;;;;;;8.41;100.00;98386.94;5052840;28;20045;-58
2024/04/03 03:59:18;;;;;;;0.30;0.30;;;;;;;8.38;100.00;98390.06;5049123;28;20159;-58
2024/04/03 04:01:47;;;;;;;0.40;0.40;;;;;;;8.39;100.00;98386.38;5057272;28;20468;-58
2024/04/03 04:04:14;;;;;;;0.30;0.30;;;;;;;8.31;100.00;98378.78;5060160;28;20048;-58
2024/04/03 04:06:41;;;;;;;0.20;0.20;;;;;;;8.41;100.00;98380.78;5053245;28;20454;-58
2024/04/03 04:09:07;;;;;;;0.28;0.28;;;;;;;8.41;100.00;98372.78;5057034;28;20479;-58
2024/04/03 04:11:34;;;;;;;0.28;0.28;;;;;;;8.42;100.00;98375.19;5052949;28;20040;-58
2024/04/03 04:14:01;;;;;;;0.20;0.20;;;;;;;8.55;100.00;98371.34;5050514;28;20045;-58
2024/04/03 04:16:28;;;;;;;0.20;0.20;;;;;;;8.77;100.00;98365.97;5084738;28;20049;-58
2024/04/03 04:18:54;;;;;;;0.40;0.40;;;;;;;8.95;100.00;98366.69;5052416;28;20479;-57
2024/04/03 04:21:22;;;;;;;0.30;0.30;;;;;;;8.81;100.00;98364.41;5049474;28;20044;-58
2024/04/03 04:23:48;;;;;;;0.20;0.20;;;;;;;8.82;100.00;98365.22;5044607;28;20400;-58
2024/04/03 04:26:15;;;;;;;0.30;0.30;;;;;;;8.70;100.00;98365.34;5058738;28;20047;-58
2024/04/03 04:28:41;;;;;;;0.30;0.30;;;;;;;8.60;100.00;98365.25;5055365;28;20044;-58
2024/04/03 04:31:10;;;;;;;0.30;0.30;;;;;;;8.60;100.00;98362.59;5048571;28;20538;-58
2024/04/03 04:33:37;;;;;;;0.20;0.20;;;;;;;8.43;100.00;98358.09;5049482;28;20768;-57
2024/04/03 04:36:04;;;;;;;0.30;0.30;;;;;;;8.57;100.00;98363.09;5054396;28;20049;-58
2024/04/03 04:38:30;;;;;;;0.30;0.30;;;;;;;8.39;100.00;98370.38;5061353;28;20037;-57
2024/04/03 04:40:58;;;;;;;0.30;0.30;;;;;;;8.60;100.00;98367.91;5053339;28;20178;-58
2024/04/03 04:43:24;;;;;;;0.20;0.20;;;;;;;8.52;100.00;98373.72;5052371;28;20068;-58
2024/04/03 04:45:58;;;;;;;0.20;0.20;;;;;;;8.56;100.00;98362.28;5054786;28;20049;-58
2024/04/03 04:48:26;;;;;;;0.20;0.20;;;;;;;8.56;100.00;98382.81;5051242;28;20518;-58
2024/04/03 04:50:53;;;;;;;0.30;0.30;;;;;;;8.84;100.00;98379.94;5047860;28;20269;-58
2024/04/03 04:53:19;;;;;;;0.20;0.20;;;;;;;8.72;100.00;98387.28;5057225;28;20047;-58
2024/04/03 04:55:54;;;;;;;0.30;0.30;;;;;;;9.00;100.00;98382.75;5053106;28;20059;-58
2024/04/03 04:58:20;;;;;;;0.25;0.25;;;;;;;9.11;100.00;98384.50;5049028;28;20051;-59
2024/04/03 05:00:48;;;;;;;0.20;0.20;;;;;;;9.09;100.00;98386.59;5049340;28;20041;-57
2024/04/03 05:03:14;;;;;;;0.20;0.20;;;;;;;8.91;100.00;98394.97;5054977;28;20532;-58
2024/04/03 05:05:43;;;;;;;0.20;0.20;;;;;;;8.77;100.00;98392.69;5052207;28;20052;-57
2024/04/03 05:08:10;;;;;;;0.20;0.20;;;;;;;8.79;100.00;98393.25;5055100;28;20045;-57
2024/04/03 05:10:37;;;;;;;0.30;0.30;;;;;;;8.81;100.00;98390.31;5056537;28;20037;-57
2024/04/03 05:13:03;;;;;;;0.30;0.30;;;;;;;8.79;100.00;98395.91;5053853;28;20915;-57
2024/04/03 05:15:30;;;;;;;0.15;0.15;;;;;;;8.69;100.00;98398.50;5054015;28;20564;-57
2024/04/03 05:17:57;;;;;;;0.10;0.10;;;;;;;8.82;100.00;98391.94;5055481;28;20053;-57
2024/04/03 05:20:24;;;;;;;0.20;0.20;;;;;;;8.95;100.00;98404.09;5048144;28;20083;-57
2024/04/03 05:22:52;;;;;;;0.20;0.20;;;;;;;8.79;100.00;98392.44;5043479;28;20087;-57
2024/04/03 05:25:19;;;;;;;0.30;0.30;;;;;;;8.84;100.00;98393.31;5049526;28;20049;-59
2024/04/03 05:27:46;;;;;;;0.22;0.22;;;;;;;8.98;100.00;98396.38;5050862;28;20569;-57
2024/04/03 05:30:13;;;;;;;0.20;0.20;;;;;;;9.06;100.00;98395.94;5050290;28;20053;-58
2024/04/03 05:32:39;;;;;;;0.30;0.30;;;;;;;9.06;100.00;98393.25;5084771;28;20040;-57
2024/04/03 05:35:06;;;;;;;0.20;0.20;;;;;;;8.94;100.00;98397.94;5056457;28;20069;-57
2024/04/03 05:37:32;;;;;;;0.30;0.30;;;;;;;8.83;100.00;98397.00;5052259;28;20639;-58
2024/04/03 05:40:04;;;;;;;0.20;0.20;;;;;;;9.06;100.00;98403.13;5052863;28;20055;-57
2024/04/03 05:42:30;;;;;;;0.20;0.20;;;;;;;9.00;100.00;98394.25;5054778;28;20040;-58
2024/04/03 05:44:57;;;;;;;0.30;0.30;;;;;;;9.32;100.00;98382.78;5042893;28;20044;-59
2024/04/03 05:47:23;;;;;;;0.20;0.20;;;;;;;9.10;100.00;98382.84;5053907;28;20105;-58
2024/04/03 05:49:53;;;;;;;0.25;0.25;;;;;;;9.13;100.00;98376.19;5054153;28;20048;-60
2024/04/03 05:52:19;;;;;;;;;;;;;;;9.33;100.00;98380.91;5053622;28;20048;-57
2024/04/03 05:54:47;;;;;;;0.30;0.30;;;;;;;9.18;100.00;98376.25;5048851;28;19931;-57
2024/04/03 05:57:16;;;;;;;0.20;0.20;;;;;;;9.09;100.00;98370.56;5049789;28;21850;-57
2024/04/03 05:59:43;;;;;;;0.30;0.30;;;;;;;9.23;100.00;98365.59;5051891;28;20056;-57
2024/04/03 06:02:09;;;;;;;0.30;0.30;;;;;;;9.26;100.00;98370.41;5055658;28;20055;-57
2024/04/03 06:04:36;;;;;;;0.20;0.20;;;;;;;9.13;100.00;98381.53;5055467;28;20076;-59
2024/04/03 06:07:03;;;;;;;0.30;0.30;;;;;;;9.34;100.00;98387.91;5054091;28;20055;-58
2024/04/03 06:09:30;;;;;;;0.20;0.20;;;;;;;8.92;100.00;98380.56;5054668;28;20051;-58
2024/04/03 06:11:57;;;;;;;0.25;0.25;;;;;;;9.38;100.00;98383.63;5051655;28;20155;-58
2024/04/03 06:14:25;;;;;;;0.28;0.28;;;;;;;9.42;100.00;98384.75;5056376;28;20498;-57
2024/04/03 06:16:51;;;;;;;0.20;0.20;;;;;;;9.57;100.00;98381.38;5053542;28;20048;-58
2024/04/03 06:19:18;;;;;;;0.22;0.22;;;;;;;9.42;100.00;98382.06;5054725;28;20744;-58
2024/04/03 06:21:45;;;;;;;0.30;0.30;;;;;;;9.15;100.00;98376.75;5057152;28;20060;-58
2024/04/03 06:24:12;;;;;;;0.30;0.30;;;;;;;9.32;100.00;98373.97;5051521;28;20821;-58
2024/04/03 06:26:38;;;;;;;0.20;0.20;;;;;;;9.31;100.00;98377.69;5055267;28;20557;-57
2024/04/03 06:29:05;;;;;;;0.28;0.28;;;;;;;9.61;100.00;98383.28;5055217;28;20143;-57
2024/04/03 06:31:33;;;;;;;0.20;0.20;;;;;;;9.81;100.00;98379.13;5050872;28;20127;-58
2024/04/03 06:34:00;;;;;;;0.20;0.20;;;;;;;9.64;100.00;98382.78;5051491;28;20036;-58
2024/04/03 06:36:27;;;;;;;0.20;0.20;;;;;;;9.73;100.00;98380.41;5053861;28;20052;-58
2024/04/03 06:38:54;;;;;;;0.25;0.25;;;;;;;9.49;100.00;98377.31;5056914;28;20879;-58
2024/04/03 06:41:20;;;;;;;0.20;0.20;;;;;;;9.34;100.00;98369.97;5050753;28;20051;-57
2024/04/03 06:43:47;;;;;;;0.30;0.30;;;;;;;9.57;100.00;98371.47;5051143;28;20708;-57
2024/04/03 06:46:13;;;;;;;0.30;0.30;;;;;;;9.57;100.00;98366.13;5053206;28;20149;-58
2024/04/03 06:48:41;;;;;;;0.22;0.22;;;;;;;9.55;100.00;98362.91;5056631;28;20041;-58
2024/04/03 06:51:07;;;;;;;0.22;0.22;;;;;;;9.70;100.00;98359.53;5059865;28;20657;-58
2024/04/03 06:53:35;;;;;;;0.30;0.30;;;;;;;9.46;100.00;98365.25;5055750;28;20783;-58
2024/04/03 06:56:01;;;;;;;0.20;0.20;;;;;;;9.57;100.00;98360.78;5054143;28;20041;-58
2024/04/03 06:58:29;;;;;;;0.30;0.30;;;;;;;9.90;100.00;98353.50;5047156;28;20044;-58
2024/04/03 07:00:55;;;;;;;0.20;0.20;;;;;;;9.88;100.00;98339.56;5057615;28;20171;-58
2024/04/03 07:03:22;;;;;;;0.20;0.20;;;;;;;9.86;100.00;98347.88;5033201;28;20061;-58
2024/04/03 07:05:49;;;;;;;0.20;0.20;;;;;;;10.06;100.00;98338.31;5060361;28;20152;-58
2024/04/03 07:08:16;;;;;;;0.30;0.30;;;;;;;10.30;100.00;98336.84;5052063;28;20135;-58
2024/04/03 07:10:43;;;;;;;0.20;0.20;;;;;;;10.02;100.00;98332.69;5050354;28;20055;-58
2024/04/03 07:13:10;;;;;;;0.15;0.15;;;;;;;9.92;100.00;98336.09;5056092;28;20458;-58
2024/04/03 07:15:36;;;;;;;0.30;0.30;;;;;;;10.57;100.00;98338.53;5055627;28;20067;-58
2024/04/03 07:18:03;;;;;;;0.25;0.25;;;;;;;10.21;100.00;98343.75;5056248;28;20048;-58
2024/04/03 07:20:30;;;;;;;0.22;0.22;;;;;;;9.93;100.00;98335.06;5048707;28;20049;-58
2024/04/03 07:22:59;;;;;;;0.20;0.20;;;;;;;10.36;100.00;98335.81;5050198;28;20527;-58
2024/04/03 07:25:25;;;;;;;0.20;0.20;;;;;;;10.45;100.00;98327.25;5053626;28;20131;-58
2024/04/03 07:27:52;;;;;;;0.20;0.20;;;;;;;10.50;100.00;98332.63;5047123;28;20049;-58
2024/04/03 07:30:18;;;;;;;0.15;0.15;;;;;;;10.51;100.00;98329.69;5050555;28;20135;-58
2024/04/03 07:32:46;;;;;;;0.20;0.20;;;;;;;9.92;100.00;98329.97;5053539;28;20117;-59
2024/04/03 07:35:12;;;;;;;0.30;0.30;;;;;;;10.93;100.00;98333.25;5046928;28;20149;-58
2024/04/03 07:37:40;;;;;;;0.30;0.30;;;;;;;10.25;100.00;98327.97;5056129;28;20124;-58
2024/04/03 07:40:08;;;;;;;0.30;0.30;;;;;;;11.00;100.00;98329.22;5054092;28;20037;-58
2024/04/03 07:42:38;;;;;;;0.30;0.30;;;;;;;10.93;100.00;98334.06;5051673;28;20059;-58
2024/04/03 07:45:05;;;;;;;0.20;0.20;;;;;;;10.27;100.00;98339.22;5056320;28;20037;-58
2024/04/03 07:47:32;;;;;;;0.22;0.22;;;;;;;10.70;100.00;98337.22;5055321;28;20055;-58
2024/04/03 07:49:58;;;;;;;0.20;0.20;;;;;;;10.54;100.00;98342.56;5051485;28;20127;-58
2024/04/03 07:52:26;;;;;;;0.20;0.20;;;;;;;10.97;100.00;98345.06;5052424;28;20049;-58
2024/04/03 07:54:52;;;;;;;0.30;0.30;;;;;;;11.30;100.00;98348.28;5054700;28;20039;-58
2024/04/03 07:57:21;;;;;;;0.20;0.20;;;;;;;10.87;100.00;98345.84;5051786;28;20056;-58
2024/04/03 07:59:48;;;;;;;0.20;0.20;;;;;;;10.88;100.00;98352.81;5046249;28;20041;-58
2024/04/03 08:02:15;;;;;;;0.13;0.13;;;;;;;11.33;100.00;98347.75;5049956;28;20080;-58
2024/04/03 08:04:41;;;;;;;0.20;0.20;;;;;;;11.70;100.00;98350.13;5053534;28;20487;-58
2024/04/03 08:07:09;;;;;;;0.20;0.20;;;;;;;11.28;100.00;98355.78;5057521;28;20045;-58
2024/04/03 08:09:36;;;;;;;0.10;0.10;;;;;;;11.16;100.00;98353.41;5055988;28;20036;-58
2024/04/03 08:12:03;;;;;;;0.20;0.20;;;;;;;11.02;100.00;98348.53;5047326;28;20702;-58
2024/04/03 08:14:31;;;;;;;0.10;0.10;;;;;;;11.45;100.00;98346.41;5050257;28;20044;-58
2024/04/03 08:16:58;;;;;;;0.10;0.10;;;;;;;11.42;100.00;98335.41;5056068;28;20064;-58
2024/04/03 08:19:25;;;;;;;0.20;0.20;;;;;;;11.56;100.00;98346.41;5050723;28;20056;-58
2024/04/03 08:21:51;;;;;;;0.20;0.20;;;;;;;11.58;100.00;98344.25;5056428;28;20132;-58
2024/04/03 08:24:18;;;;;;;0.20;0.20;;;;;;;11.21;100.00;98350.72;5048323;28;20052;-58
2024/04/03 08:26:45;;;;;;;0.25;0.25;;;;;;;10.76;100.00;98344.22;5050207;28;20048;-58
2024/04/03 08:29:13;;;;;;;0.30;0.30;;;;;;;11.19;100.00;98339.44;5048209;28;20049;-58
2024/04/03 08:31:41;;;;;;;0.20;0.20;;;;;;;11.78;100.00;98341.56;5057172;28;20491;-58
2024/04/03 08:34:08;;;;;;;0.28;0.28;;;;;;;12.07;100.00;98340.97;5056597;28;20659;-58
2024/04/03 08:36:34;;;;;;;0.15;0.15;;;;;;;11.95;100.00;98340.44;5051878;28;20049;-58
2024/04/03 08:39:01;;;;;;;0.10;0.10;;;;;;;11.79;99.73;98337.78;5056554;28;20036;-58
2024/04/03 08:41:27;;;;;;;0.30;0.30;;;;;;;12.11;97.71;98342.03;5057288;28;20051;-58
2024/04/03 08:43:54;;;;;;;0.20;0.20;;;;;;;12.50;95.42;98333.25;5053374;28;20049;-58
2024/04/03 08:46:20;;;;;;;0.10;0.10;;;;;;;11.83;98.63;98338.84;5050253;28;20040;-58
2024/04/03 08:48:48;;;;;;;0.20;0.20;;;;;;;11.87;97.49;98334.56;5054442;28;20454;-58
2024/04/03 08:51:14;;;;;;;0.20;0.20;;;;;;;11.94;96.86;98328.13;5056528;28;22686;-58
2024/04/03 08:53:43;;;;;;;0.20;0.20;;;;;;;12.23;98.36;98329.09;5050435;28;20136;-60
2024/04/03 08:56:09;;;;;;;0.20;0.20;;;;;;;11.44;97.91;98334.06;5050089;28;20041;-58
2024/04/03 08:58:36;;;;;;;0.10;0.10;;;;;;;11.77;96.37;98331.06;5050396;28;20040;-58
2024/04/03 09:01:02;;;;;;;0.20;0.20;;;;;;;11.88;97.93;98332.66;5043991;28;20052;-58
2024/04/03 09:03:29;;;;;;;0.20;0.20;;;;;;;12.01;96.11;98336.69;5057015;28;20056;-58
2024/04/03 09:05:57;;;;;;;0.20;0.20;;;;;;;12.40;95.11;98333.31;5055102;28;20080;-59
2024/04/03 09:08:25;;;;;;;0.20;0.20;;;;;;;11.15;92.75;98331.13;5045971;28;20048;-58
2024/04/03 09:10:56;;;;;;;0.28;0.28;;;;;;;11.60;94.90;98321.44;5049201;28;20041;-58
2024/04/03 09:13:23;;;;;;;0.30;0.30;;;;;;;12.39;91.63;98329.03;5058708;28;20041;-58
2024/04/03 09:15:51;;;;;;;0.20;0.20;;;;;;;12.42;88.98;98334.63;5051991;28;20136;-58
2024/04/03 09:18:19;;;;;;;0.20;0.20;;;;;;;12.72;87.08;98339.03;5052137;28;20457;-58
2024/04/03 09:20:47;;;;;;;0.20;0.20;;;;;;;12.32;87.74;98320.44;5058007;28;20139;-58
2024/04/03 09:23:15;;;;;;;0.20;0.20;;;;;;;11.78;86.72;98328.13;5048740;28;20419;-58
2024/04/03 09:25:41;;;;;;;0.20;0.20;;;;;;;12.00;90.39;98325.13;5057386;28;20123;-58
2024/04/03 09:28:09;;;;;;;0.20;0.20;;;;;;;11.70;90.96;98325.97;5053824;28;20057;-58
2024/04/03 09:30:38;;;;;;;0.15;0.15;;;;;;;11.87;88.91;98331.06;5055228;28;20052;-57
2024/04/03 09:33:06;;;;;;;0.20;0.20;;;;;;;11.83;87.86;98322.75;5049890;28;20049;-58
2024/04/03 09:35:32;;;;;;;0.10;0.10;;;;;;;11.93;85.90;98318.44;5052108;28;20387;-58
2024/04/03 09:37:59;;;;;;;0.20;0.20;;;;;;;12.16;86.86;98328.56;5051281;28;20052;-58
2024/04/03 09:40:27;;;;;;;0.10;0.10;;;;;;;11.93;88.19;98339.91;5053787;28;20040;-58
2024/04/03 09:42:58;;;;;;;0.10;0.10;;;;;;;11.98;88.59;98331.84;5048572;28;20837;-57
2024/04/03 09:45:24;;;;;;;;;;;;;;;11.22;89.43;98330.84;5055146;28;20047;-56
2024/04/03 09:47:54;;;;;;;0.17;0.17;;;;;;;11.72;87.72;98328.41;5044596;28;20570;-57
2024/04/03 09:50:20;;;;;;;0.10;0.10;;;;;;;11.72;87.59;98321.16;5047681;28;20120;-57
2024/04/03 09:52:48;;;;;;;0.20;0.20;;;;;;;11.80;87.18;98331.31;5074074;28;20052;-57
2024/04/03 09:55:14;;;;;;;0.20;0.20;;;;;;;11.52;89.19;98326.56;5044573;28;20081;-58
2024/04/03 09:57:42;;;;;;;0.28;0.28;;;;;;;12.06;87.23;98334.00;5056020;28;20613;-57
2024/04/03 10:00:10;;;;;;;0.20;0.20;;;;;;;12.09;86.84;98331.53;5051196;28;20090;-57
2024/04/03 10:02:47;;;;;;;0.20;0.20;;;;;;;12.49;86.76;98326.28;5085211;28;20059;-58
2024/04/03 10:05:13;;;;;;;0.10;0.10;;;;;;;12.14;84.76;98335.31;5050220;28;20060;-58
2024/04/03 10:07:40;;;;;;;0.17;0.17;;;;;;;12.34;85.93;98334.41;5048222;28;20052;-58
2024/04/03 10:10:15;;;;;;;0.25;0.25;;;;;;;12.30;86.06;98323.41;5053180;28;20091;-58
2024/04/03 10:12:45;;;;;;;0.10;0.10;;;;;;;12.07;86.78;98325.63;5055727;28;20395;-58
2024/04/03 10:15:22;;;;;;;0.20;0.20;;;;;;;11.97;86.13;98323.00;5050021;28;20076;-58
2024/04/03 10:17:49;;;;;;;0.15;0.15;;;;;;;12.47;86.08;98326.53;5046483;28;20047;-58
2024/04/03 10:20:29;;;;;;;0.10;0.10;;;;;;;12.37;85.69;98318.53;5043402;28;20056;-58
2024/04/03 10:22:56;;;;;;;0.17;0.17;;;;;;;12.36;85.28;98324.19;5054167;28;20037;-58
2024/04/03 10:25:22;;;;;;;0.20;0.20;;;;;;;12.52;84.35;98320.34;5052729;28;20044;-58
2024/04/03 10:27:50;;;;;;;0.20;0.20;;;;;;;13.05;83.19;98317.84;5055312;28;20170;-58
2024/04/03 10:30:18;;;;;;;0.10;0.10;;;;;;;13.24;81.27;98314.50;5050773;28;20039;-58
2024/04/03 10:32:46;;;;;;;0.20;0.20;;;;;;;13.37;80.30;98319.25;5055134;28;20154;-58
2024/04/03 10:35:12;;;;;;;0.15;0.15;;;;;;;13.25;80.51;98305.31;5054213;28;20074;-58
2024/04/03 10:37:39;;;;;;;0.20;0.20;;;;;;;13.05;80.29;98322.44;5047007;28;20037;-58
2024/04/03 10:40:06;;;;;;;0.13;0.13;;;;;;;13.13;82.23;98314.56;5043338;28;20057;-58
2024/04/03 10:42:34;;;;;;;0.10;0.10;;;;;;;12.76;84.78;98308.94;5055426;28;20044;-57
2024/04/03 10:45:03;;;;;;;0.20;0.20;;;;;;;12.72;84.64;98309.47;5054118;28;20132;-58
2024/04/03 10:47:30;;;;;;;0.10;0.10;;;;;;;12.55;85.24;98314.41;5051756;28;20292;-57
2024/04/03 10:49:56;;;;;;;0.13;0.13;;;;;;;12.67;88.35;98309.50;5049553;28;20735;-58
2024/04/03 10:52:24;;;;;;;0.10;0.10;;;;;;;12.20;90.03;98305.44;5048002;28;20032;-58
2024/04/03 10:54:50;;;;;;;0.20;0.20;;;;;;;12.50;91.18;98306.38;5044926;28;20044;-58
2024/04/03 10:57:17;;;;;;;0.20;0.20;;;;;;;12.36;92.12;98300.03;5048047;28;20460;-58
2024/04/03 10:59:43;;;;;;;0.10;0.10;;;;;;;12.22;92.93;98305.97;5043942;28;20036;-57
2024/04/03 11:02:12;;;;;;;0.10;0.10;;;;;;;12.35;95.14;98306.47;5046270;28;20079;-58
2024/04/03 11:04:39;;;;;;;0.13;0.13;;;;;;;12.18;95.97;98309.47;5048335;28;20080;-57
2024/04/03 11:07:08;;;;;;;0.10;0.10;;;;;;;11.41;95.43;98318.50;5050610;28;20290;-58
2024/04/03 11:09:35;;;;;;;0.20;0.20;;;;;;;11.90;96.26;98309.03;5046231;28;20045;-58
2024/04/03 11:12:03;;;;;;;0.20;0.20;;;;;;;12.01;96.02;98305.25;5051541;28;20113;-58
2024/04/03 11:14:30;;;;;;;0.20;0.20;;;;;;;11.75;97.92;98309.06;5055985;28;20048;-58
2024/04/03 11:16:58;;;;;;;0.20;0.20;;;;;;;11.85;99.19;98300.97;5054179;28;20045;-58
2024/04/03 11:19:26;;;;;;;0.20;0.20;;;;;;;11.61;100.00;98303.47;5055939;28;20041;-58
2024/04/03 11:21:53;;;;;;;0.10;0.10;;;;;;;11.56;100.00;98309.66;5048553;28;20036;-58
2024/04/03 11:24:20;;;;;;;0.13;0.13;;;;;;;11.57;100.00;98311.25;5046591;28;20045;-58
2024/04/03 11:26:47;;;;;;;0.20;0.20;;;;;;;11.29;100.00;98304.56;5051917;28;20059;-57
2024/04/03 11:29:27;;;;;;;0.20;0.20;;;;;;;11.52;100.00;98313.13;5050347;28;20677;-58
2024/04/03 11:31:54;;;;;;;0.20;0.20;;;;;;;11.41;100.00;98313.16;5052408;28;20045;-58
2024/04/03 11:34:20;;;;;;;0.20;0.20;;;;;;;11.39;100.00;98320.66;5058245;28;20045;-58
2024/04/03 11:36:50;;;;;;;0.20;0.20;;;;;;;10.93;100.00;98318.00;5053184;28;20401;-58